Time;durP1;ratioP1;P1;durP2;ratioP2;P2;SDS_P1;SDS_P2;PMS_P1;PMS_P2;Temp;Humidity;BMP_temperature;BMP_pressure;BME280_temperature;BME280_humidity;BME280_pressure;Samples;Min_cycle;Max_cycle;Signal;HPM_P1;HPM_P2
2022/01/07 00:01:50;;;;;;;;;57.75;43.50;;;;;;;;4959556;28;51224;-51
2022/01/07 00:04:55;;;;;;;;;58.75;42.25;;;;;;;;4956558;28;52243;-49
2022/01/07 00:07:39;;;;;;;;;58.50;41.75;;;;;;;;4959528;28;51086;-52
2022/01/07 00:10:24;;;;;;;;;56.00;43.75;;;;;;;;4959435;28;51395;-47
2022/01/07 00:13:19;;;;;;;;;62.00;45.00;;;;;;;;4959483;28;51268;-50
2022/01/07 00:16:22;;;;;;;;;63.50;44.75;;;;;;;;4961191;28;51085;-47
2022/01/07 00:19:08;;;;;;;;;54.50;38.50;;;;;;;;4959941;28;50956;-51
2022/01/07 00:22:05;;;;;;;;;51.75;40.75;;;;;;;;4959526;28;51480;-48
2022/01/07 00:24:50;;;;;;;;;56.25;41.50;;;;;;;;4959692;28;51119;-54
2022/01/07 00:27:39;;;;;;;;;57.00;42.50;;;;;;;;4958964;28;51499;-48
2022/01/07 00:30:33;;;;;;;;;56.75;41.75;;;;;;;;4958568;28;51922;-48
2022/01/07 00:33:18;;;;;;;;;58.50;42.25;;;;;;;;4959427;28;51092;-50
2022/01/07 00:36:06;;;;;;;;;58.00;42.00;;;;;;;;4959527;28;51134;-49
2022/01/07 00:39:11;;;;;;;;;57.00;40.25;;;;;;;;4959551;28;51174;-50
2022/01/07 00:41:56;;;;;;;;;61.50;46.25;;;;;;;;4959397;28;51364;-49
2022/01/07 00:44:45;;;;;;;;;61.00;43.25;;;;;;;;4959719;28;51310;-47
2022/01/07 00:47:38;;;;;;;;;58.00;43.25;;;;;;;;4959263;28;51335;-50
2022/01/07 00:50:25;;;;;;;;;58.50;43.75;;;;;;;;4959523;28;51042;-49
2022/01/07 00:53:12;;;;;;;;;56.75;42.00;;;;;;;;4959003;28;51044;-50
2022/01/07 00:55:58;;;;;;;;;55.00;40.50;;;;;;;;4957959;28;52272;-47
2022/01/07 00:58:43;;;;;;;;;60.25;42.25;;;;;;;;4959106;28;51527;-47
2022/01/07 01:01:46;;;;;;;;;51.75;40.75;;;;;;;;4957896;28;51095;-52
2022/01/07 01:04:35;;;;;;;;;59.75;43.50;;;;;;;;4959637;28;51088;-50
2022/01/07 01:07:26;;;;;;;;;58.50;40.25;;;;;;;;4959261;28;51106;-48
2022/01/07 01:10:16;;;;;;;;;61.50;43.75;;;;;;;;4959482;28;51123;-47
2022/01/07 01:13:03;;;;;;;;;55.75;41.50;;;;;;;;4985351;28;51044;-51
2022/01/07 01:16:17;;;;;;;;;57.00;42.00;;;;;;;;4959369;28;51873;-46
2022/01/07 01:19:02;;;;;;;;;62.00;42.25;;;;;;;;4963189;28;51177;-51
2022/01/07 01:21:49;;;;;;;;;58.50;43.00;;;;;;;;4963483;28;51002;-46
2022/01/07 01:25:12;;;;;;;;;59.00;42.50;;;;;;;;4963008;28;51119;-48
2022/01/07 01:27:56;;;;;;;;;60.50;42.25;;;;;;;;4963255;28;51127;-48
2022/01/07 01:30:44;;;;;;;;;51.75;40.25;;;;;;;;4963026;28;51635;-51
2022/01/07 01:33:40;;;;;;;;;59.25;43.50;;;;;;;;4963077;28;51096;-50
2022/01/07 01:36:43;;;;;;;;;56.00;41.75;;;;;;;;4962172;28;51159;-49
2022/01/07 01:39:26;;;;;;;;;58.00;42.75;;;;;;;;4962600;28;51123;-51
2022/01/07 01:42:12;;;;;;;;;59.75;43.75;;;;;;;;4962891;28;51523;-48
2022/01/07 01:44:56;;;;;;;;;57.50;42.75;;;;;;;;4962826;28;51351;-51
2022/01/07 01:47:46;;;;;;;;;63.00;44.50;;;;;;;;4962931;28;51147;-47
2022/01/07 01:50:56;;;;;;;;;60.50;41.75;;;;;;;;4962425;28;51350;-48
2022/01/07 01:53:45;;;;;;;;;61.50;44.25;;;;;;;;4962659;28;51024;-47
2022/01/07 01:56:32;;;;;;;;;53.50;42.25;;;;;;;;4962519;28;51225;-49
2022/01/07 01:59:43;;;;;;;;;55.25;41.50;;;;;;;;4962458;28;51510;-52
2022/01/07 02:02:31;;;;;;;;;63.75;42.25;;;;;;;;4961872;28;51213;-50
2022/01/07 02:05:26;;;;;;;;;63.00;43.00;;;;;;;;4961692;28;51450;-50
2022/01/07 02:08:30;;;;;;;;;57.50;41.75;;;;;;;;4962011;28;51232;-49
2022/01/07 02:11:20;;;;;;;;;59.00;42.25;;;;;;;;4962198;28;51023;-47
2022/01/07 02:14:14;;;;;;;;;58.50;43.00;;;;;;;;4962357;28;51027;-49
2022/01/07 02:17:09;;;;;;;;;60.75;44.25;;;;;;;;4961763;28;51555;-48
2022/01/07 02:19:55;;;;;;;;;60.25;44.50;;;;;;;;4960823;28;51174;-45
2022/01/07 02:23:05;;;;;;;;;56.00;41.25;;;;;;;;4961664;28;51169;-48
2022/01/07 02:25:57;;;;;;;;;62.75;43.50;;;;;;;;4961651;28;51190;-53
2022/01/07 02:28:41;;;;;;;;;55.50;40.75;;;;;;;;4961762;28;51509;-50
2022/01/07 02:31:36;;;;;;;;;53.00;41.75;;;;;;;;4961275;28;51548;-45
2022/01/07 02:34:22;;;;;;;;;62.75;43.75;;;;;;;;4961860;28;51108;-45
2022/01/07 02:37:18;;;;;;;;;53.00;40.75;;;;;;;;4961571;28;51149;-53
2022/01/07 02:40:22;;;;;;;;;59.25;41.50;;;;;;;;4961404;28;51067;-50
2022/01/07 02:43:13;;;;;;;;;60.50;42.50;;;;;;;;4960213;28;51425;-47
2022/01/07 02:45:59;;;;;;;;;64.25;45.25;;;;;;;;4961495;28;51113;-48
2022/01/07 02:48:46;;;;;;;;;60.75;43.25;;;;;;;;4961124;28;51368;-51
2022/01/07 02:51:51;;;;;;;;;53.50;40.50;;;;;;;;4958816;28;51151;-49
2022/01/07 02:54:36;;;;;;;;;55.00;41.50;;;;;;;;4960311;28;51420;-52
2022/01/07 02:57:22;;;;;;;;;62.75;45.75;;;;;;;;4961161;28;51118;-50
2022/01/07 03:00:17;;;;;;;;;61.75;44.50;;;;;;;;4961196;28;51039;-47
2022/01/07 03:03:10;;;;;;;;;54.25;41.00;;;;;;;;4960882;28;51085;-48
2022/01/07 03:06:15;;;;;;;;;57.75;43.25;;;;;;;;4960755;28;51177;-50
2022/01/07 03:09:21;;;;;;;;;54.50;41.00;;;;;;;;4960335;28;51544;-48
2022/01/07 03:12:07;;;;;;;;;54.50;39.25;;;;;;;;4953338;28;51005;-48
2022/01/07 03:14:52;;;;;;;;;57.50;45.00;;;;;;;;4960816;28;51592;-51
2022/01/07 03:17:40;;;;;;;;;61.00;45.25;;;;;;;;4960950;28;51050;-47
2022/01/07 03:20:38;;;;;;;;;61.75;44.25;;;;;;;;4960748;28;51094;-51
2022/01/07 03:23:27;;;;;;;;;59.50;44.75;;;;;;;;4960856;28;51462;-48
2022/01/07 03:26:15;;;;;;;;;62.25;44.25;;;;;;;;4960878;28;51589;-50
2022/01/07 03:29:32;;;;;;;;;63.00;42.75;;;;;;;;4960800;28;51417;-49
2022/01/07 03:32:19;;;;;;;;;60.50;43.00;;;;;;;;4961005;28;51046;-47
2022/01/07 03:35:05;;;;;;;;;58.25;43.00;;;;;;;;4958808;28;51554;-48
2022/01/07 03:37:59;;;;;;;;;59.00;43.75;;;;;;;;4960040;28;51340;-45
2022/01/07 03:40:54;;;;;;;;;60.00;45.25;;;;;;;;4959372;28;51564;-48
2022/01/07 03:43:39;;;;;;;;;63.25;43.50;;;;;;;;4953787;28;51036;-52
2022/01/07 03:46:34;;;;;;;;;60.00;44.75;;;;;;;;4980411;28;51241;-48
2022/01/07 03:49:24;;;;;;;;;62.00;44.00;;;;;;;;4959521;28;51134;-47
2022/01/07 03:52:11;;;;;;;;;65.00;46.75;;;;;;;;4960557;28;51694;-49
2022/01/07 03:55:07;;;;;;;;;55.00;44.25;;;;;;;;4970360;28;51125;-51
2022/01/07 03:57:53;;;;;;;;;65.00;45.25;;;;;;;;4956270;28;51121;-51
2022/01/07 04:00:39;;;;;;;;;59.00;46.00;;;;;;;;4957226;28;51134;-52
2022/01/07 04:03:24;;;;;;;;;61.75;45.00;;;;;;;;4985556;28;51317;-49
2022/01/07 04:06:20;;;;;;;;;64.50;46.00;;;;;;;;4959808;28;51607;-48
2022/01/07 04:09:08;;;;;;;;;60.00;46.50;;;;;;;;4960405;28;51244;-51
2022/01/07 04:11:54;;;;;;;;;60.50;46.25;;;;;;;;4960761;28;51189;-49
2022/01/07 04:14:55;;;;;;;;;61.50;45.75;;;;;;;;4959650;28;51419;-50
2022/01/07 04:18:00;;;;;;;;;66.75;47.50;;;;;;;;4959176;28;51201;-48
2022/01/07 04:20:54;;;;;;;;;63.00;45.75;;;;;;;;4974441;28;51727;-50
2022/01/07 04:23:40;;;;;;;;;61.75;43.25;;;;;;;;4967231;28;51178;-48
2022/01/07 04:26:35;;;;;;;;;58.50;45.25;;;;;;;;4958588;28;51401;-49
2022/01/07 04:29:21;;;;;;;;;55.25;38.75;;;;;;;;4955405;28;51239;-48
2022/01/07 04:32:32;;;;;;;;;61.00;45.00;;;;;;;;4959961;28;51496;-49
2022/01/07 04:35:22;;;;;;;;;61.00;44.75;;;;;;;;4959068;28;51262;-50
2022/01/07 04:38:07;;;;;;;;;63.75;46.00;;;;;;;;4960451;28;51084;-48
2022/01/07 04:40:56;;;;;;;;;64.25;46.00;;;;;;;;4953130;28;51430;-48
2022/01/07 04:43:43;;;;;;;;;56.50;42.50;;;;;;;;4959428;28;51830;-50
2022/01/07 04:46:28;;;;;;;;;54.00;44.00;;;;;;;;4959536;28;51416;-51
2022/01/07 04:49:33;;;;;;;;;57.50;43.00;;;;;;;;4959224;28;51181;-49
2022/01/07 04:52:27;;;;;;;;;61.25;45.75;;;;;;;;4962296;28;51420;-49
2022/01/07 04:55:14;;;;;;;;;55.50;41.25;;;;;;;;4956070;28;51056;-50
2022/01/07 04:58:13;;;;;;;;;53.75;40.75;;;;;;;;4962335;28;51181;-48
2022/01/07 05:01:00;;;;;;;;;58.50;43.50;;;;;;;;4953782;28;51463;-47
2022/01/07 05:03:45;;;;;;;;;59.25;44.25;;;;;;;;4959211;28;51207;-50
2022/01/07 05:06:45;;;;;;;;;60.00;44.25;;;;;;;;4962114;28;51510;-51
2022/01/07 05:09:34;;;;;;;;;59.50;43.25;;;;;;;;4957671;28;51467;-50
2022/01/07 05:12:39;;;;;;;;;58.50;43.50;;;;;;;;4963079;28;51194;-47
2022/01/07 05:15:26;;;;;;;;;58.25;42.75;;;;;;;;4963607;28;51088;-52
2022/01/07 05:18:30;;;;;;;;;62.25;45.75;;;;;;;;4963015;28;51064;-51
2022/01/07 05:21:14;;;;;;;;;60.50;44.50;;;;;;;;4962891;28;51067;-50
2022/01/07 05:24:00;;;;;;;;;64.00;46.00;;;;;;;;4963065;28;51636;-49
2022/01/07 05:26:45;;;;;;;;;70.75;52.50;;;;;;;;4962913;28;51056;-47
2022/01/07 05:29:35;;;;;;;;;75.25;58.75;;;;;;;;4963319;28;51079;-52
2022/01/07 05:32:23;;;;;;;;;77.50;61.50;;;;;;;;4953622;28;51507;-49
2022/01/07 05:35:09;;;;;;;;;81.25;66.75;;;;;;;;4962502;28;51779;-50
2022/01/07 05:38:15;;;;;;;;;93.00;73.75;;;;;;;;4954307;28;51261;-53
2022/01/07 05:41:03;;;;;;;;;92.75;76.00;;;;;;;;4963173;28;51375;-48
2022/01/07 05:43:49;;;;;;;;;83.50;71.25;;;;;;;;4962886;28;51561;-50
2022/01/07 05:46:34;;;;;;;;;82.00;71.50;;;;;;;;4962721;28;51193;-52
2022/01/07 05:49:22;;;;;;;;;87.25;75.25;;;;;;;;4962679;28;51144;-50
2022/01/07 05:52:06;;;;;;;;;88.50;76.75;;;;;;;;4962715;28;51094;-49
2022/01/07 05:55:15;;;;;;;;;78.25;64.75;;;;;;;;4962289;28;51182;-48
2022/01/07 05:58:00;;;;;;;;;91.00;78.75;;;;;;;;4962753;28;51353;-49
2022/01/07 06:00:46;;;;;;;;;81.50;71.00;;;;;;;;4962977;28;51677;-49
2022/01/07 06:03:32;;;;;;;;;91.00;77.00;;;;;;;;4950680;28;51212;-52
2022/01/07 06:06:16;;;;;;;;;95.25;79.75;;;;;;;;4958111;28;51003;-51
2022/01/07 06:09:12;;;;;;;;;89.50;72.00;;;;;;;;4961654;28;51163;-49
2022/01/07 06:11:56;;;;;;;;;83.75;70.25;;;;;;;;4962488;28;51229;-48
2022/01/07 06:14:42;;;;;;;;;77.75;65.25;;;;;;;;4962226;28;51640;-48
2022/01/07 06:17:37;;;;;;;;;97.75;78.25;;;;;;;;4949380;28;56413;-51
2022/01/07 06:20:21;;;;;;;;;92.00;74.50;;;;;;;;4961067;28;51388;-49
2022/01/07 06:23:05;;;;;;;;;97.25;78.00;;;;;;;;4961618;28;51154;-50
2022/01/07 06:25:52;;;;;;;;;85.25;76.75;;;;;;;;4962069;28;51542;-48
2022/01/07 06:28:39;;;;;;;;;94.00;77.00;;;;;;;;4960659;28;51391;-47
2022/01/07 06:31:23;;;;;;;;;89.75;75.00;;;;;;;;4961919;28;51429;-45
2022/01/07 06:34:11;;;;;;;;;94.50;81.50;;;;;;;;4961746;28;51035;-48
2022/01/07 06:36:58;;;;;;;;;96.75;78.50;;;;;;;;4960818;28;51240;-52
2022/01/07 06:39:44;;;;;;;;;94.50;77.75;;;;;;;;4961246;28;51383;-49
2022/01/07 06:42:28;;;;;;;;;92.25;77.75;;;;;;;;4960912;28;51107;-46
2022/01/07 06:45:14;;;;;;;;;91.75;77.25;;;;;;;;4961124;28;51116;-47
2022/01/07 06:48:01;;;;;;;;;113.75;91.25;;;;;;;;4960371;28;51117;-49
2022/01/07 06:50:47;;;;;;;;;97.25;81.00;;;;;;;;4960907;28;51614;-49
2022/01/07 06:53:31;;;;;;;;;93.50;80.75;;;;;;;;4961510;28;51121;-48
2022/01/07 06:56:31;;;;;;;;;93.75;83.25;;;;;;;;4961426;28;51064;-52
2022/01/07 06:59:17;;;;;;;;;92.00;76.75;;;;;;;;4960694;28;51964;-50
2022/01/07 07:02:04;;;;;;;;;89.75;81.25;;;;;;;;4961117;28;51266;-46
2022/01/07 07:04:48;;;;;;;;;96.50;84.25;;;;;;;;4961419;28;51574;-50
2022/01/07 07:07:34;;;;;;;;;100.00;86.50;;;;;;;;4960888;28;51088;-52
2022/01/07 07:10:43;;;;;;;;;108.25;91.75;;;;;;;;4961207;28;51334;-49
2022/01/07 07:13:30;;;;;;;;;108.25;85.00;;;;;;;;4960544;28;51688;-50
2022/01/07 07:16:18;;;;;;;;;99.50;84.75;;;;;;;;4960540;28;51011;-48
2022/01/07 07:19:03;;;;;;;;;100.25;89.50;;;;;;;;4960748;28;51074;-47
2022/01/07 07:21:50;;;;;;;;;101.25;86.50;;;;;;;;4961470;28;51138;-51
2022/01/07 07:24:35;;;;;;;;;104.25;88.25;;;;;;;;4987667;28;51384;-49
2022/01/07 07:27:20;;;;;;;;;99.75;86.25;;;;;;;;4961050;28;51107;-51
2022/01/07 07:30:12;;;;;;;;;102.00;90.00;;;;;;;;4960786;28;51162;-50
2022/01/07 07:32:59;;;;;;;;;106.00;93.25;;;;;;;;4961192;28;51162;-51
2022/01/07 07:38:32;;;;;;;;;100.75;88.00;;;;;;;;4961147;28;51020;-51
2022/01/07 07:41:34;;;;;;;;;95.75;85.75;;;;;;;;4960751;28;51463;-50
2022/01/07 07:44:20;;;;;;;;;99.75;86.25;;;;;;;;4960493;28;51059;-51
2022/01/07 07:47:05;;;;;;;;;96.00;80.75;;;;;;;;4960793;28;51092;-50
2022/01/07 07:49:54;;;;;;;;;101.25;83.75;;;;;;;;4960705;28;51141;-48
2022/01/07 07:52:53;;;;;;;;;93.75;79.75;;;;;;;;4960797;28;51129;-55
2022/01/07 07:55:38;;;;;;;;;93.50;82.75;;;;;;;;4960615;28;51039;-53
2022/01/07 07:58:27;;;;;;;;;104.25;91.50;;;;;;;;4960553;28;51090;-50
2022/01/07 08:01:12;;;;;;;;;105.25;89.75;;;;;;;;4960174;28;51454;-50
2022/01/07 08:03:56;;;;;;;;;103.50;93.00;;;;;;;;4960497;28;51195;-50
2022/01/07 08:06:44;;;;;;;;;89.75;82.00;;;;;;;;4960478;28;51042;-48
2022/01/07 08:09:38;;;;;;;;;108.25;95.00;;;;;;;;4960114;28;51087;-46
2022/01/07 08:12:51;;;;;;;;;105.50;89.75;;;;;;;;4960493;28;51212;-51
2022/01/07 08:18:38;;;;;;;;;104.50;92.50;;;;;;;;4960171;28;51128;-49
2022/01/07 08:21:27;;;;;;;;;92.75;81.00;;;;;;;;4960204;28;51163;-48
2022/01/07 08:24:15;;;;;;;;;102.50;89.00;;;;;;;;4960273;28;51175;-48
2022/01/07 08:27:02;;;;;;;;;99.50;82.50;;;;;;;;4959831;28;51458;-51
2022/01/07 08:29:51;;;;;;;;;93.25;81.50;;;;;;;;4966886;28;51126;-51
2022/01/07 08:36:08;;;;;;;;;99.75;86.50;;;;;;;;4957811;28;51134;-50
2022/01/07 08:38:54;;;;;;;;;99.50;80.50;;;;;;;;4958280;28;51005;-51
2022/01/07 08:41:39;;;;;;;;;93.50;86.75;;;;;;;;4957455;28;51016;-51
2022/01/07 08:44:26;;;;;;;;;79.75;67.50;;;;;;;;4957839;28;51155;-52
2022/01/07 08:47:30;;;;;;;;;86.25;73.00;;;;;;;;4957806;28;51555;-52
2022/01/07 08:50:16;;;;;;;;;84.75;75.00;;;;;;;;4957900;28;51183;-49
2022/01/07 08:53:02;;;;;;;;;73.75;62.25;;;;;;;;4957378;28;51160;-54
2022/01/07 08:55:48;;;;;;;;;77.75;69.75;;;;;;;;4957365;28;51220;-50
2022/01/07 08:58:37;;;;;;;;;87.75;75.25;;;;;;;;4957698;28;51029;-49
2022/01/07 09:01:24;;;;;;;;;76.00;64.50;;;;;;;;4957730;28;51187;-53
2022/01/07 09:04:11;;;;;;;;;71.00;56.00;;;;;;;;4957583;28;51172;-48
2022/01/07 09:06:58;;;;;;;;;74.75;60.50;;;;;;;;4943599;28;51562;-47
2022/01/07 09:09:42;;;;;;;;;73.25;65.00;;;;;;;;4957371;28;51153;-52
2022/01/07 09:12:27;;;;;;;;;72.00;63.25;;;;;;;;4960018;28;51686;-49
2022/01/07 09:17:57;;;;;;;;;61.75;47.25;;;;;;;;4952452;28;51261;-48
2022/01/07 09:20:54;;;;;;;;;54.00;41.75;;;;;;;;4957372;28;51230;-53
2022/01/07 09:23:41;;;;;;;;;50.50;42.25;;;;;;;;4957614;28;51241;-49
2022/01/07 09:26:27;;;;;;;;;56.75;45.25;;;;;;;;4956643;28;51143;-45
2022/01/07 09:29:11;;;;;;;;;51.75;42.00;;;;;;;;4955841;28;51464;-50
2022/01/07 09:31:59;;;;;;;;;58.50;44.00;;;;;;;;4956130;28;51115;-49
2022/01/07 09:34:48;;;;;;;;;55.50;41.75;;;;;;;;4956528;28;51179;-47
2022/01/07 09:37:39;;;;;;;;;55.50;43.25;;;;;;;;4957053;28;51191;-49
2022/01/07 09:40:24;;;;;;;;;57.50;40.25;;;;;;;;4960120;28;51411;-52
2022/01/07 09:43:57;;;;;;;;;55.25;41.75;;;;;;;;4959752;28;51586;-47
2022/01/07 09:46:41;;;;;;;;;56.00;42.00;;;;;;;;4939857;28;51092;-49
2022/01/07 09:49:36;;;;;;;;;52.75;40.75;;;;;;;;4940427;28;51760;-51
2022/01/07 09:52:22;;;;;;;;;55.75;42.75;;;;;;;;4940062;28;51216;-50
2022/01/07 09:55:11;;;;;;;;;54.25;41.75;;;;;;;;4950763;28;51168;-51
2022/01/07 09:57:58;;;;;;;;;51.75;40.25;;;;;;;;4961653;28;51927;-49
2022/01/07 10:00:47;;;;;;;;;54.00;41.25;;;;;;;;4961615;28;51146;-50
2022/01/07 10:03:39;;;;;;;;;46.00;37.50;;;;;;;;4961177;28;51554;-51
2022/01/07 10:06:30;;;;;;;;;46.75;37.00;;;;;;;;4962677;28;51055;-50
2022/01/07 10:09:16;;;;;;;;;47.25;36.50;;;;;;;;4962507;28;51176;-49
2022/01/07 10:12:06;;;;;;;;;50.75;40.00;;;;;;;;4962449;28;51090;-51
2022/01/07 10:15:09;;;;;;;;;52.50;40.50;;;;;;;;4962429;28;51534;-51
2022/01/07 10:18:16;;;;;;;;;53.50;42.25;;;;;;;;4961584;28;51181;-49
2022/01/07 10:21:10;;;;;;;;;48.00;39.25;;;;;;;;4962585;28;51125;-51
2022/01/07 10:24:05;;;;;;;;;48.50;37.50;;;;;;;;4961946;28;51027;-51
2022/01/07 10:27:07;;;;;;;;;47.50;37.50;;;;;;;;4987968;28;51105;-47
2022/01/07 10:29:52;;;;;;;;;53.25;38.25;;;;;;;;4961447;28;51222;-52
2022/01/07 10:32:43;;;;;;;;;51.75;41.00;;;;;;;;4961274;28;51075;-51
2022/01/07 10:35:51;;;;;;;;;54.25;41.25;;;;;;;;4988034;28;51086;-51
2022/01/07 10:38:51;;;;;;;;;53.00;41.25;;;;;;;;4961852;28;51112;-51
2022/01/07 10:41:37;;;;;;;;;56.25;41.75;;;;;;;;4961925;28;51518;-50
2022/01/07 10:44:27;;;;;;;;;49.00;36.75;;;;;;;;4961424;28;51251;-51
2022/01/07 10:47:11;;;;;;;;;52.75;39.75;;;;;;;;4961478;28;51317;-49
2022/01/07 10:50:28;;;;;;;;;56.00;42.00;;;;;;;;4960386;28;51432;-48
2022/01/07 10:53:41;;;;;;;;;53.50;39.75;;;;;;;;4978634;28;51255;-53
2022/01/07 10:56:51;;;;;;;;;52.75;40.25;;;;;;;;4978721;28;51354;-45
2022/01/07 10:59:37;;;;;;;;;50.25;38.50;;;;;;;;4975128;28;51117;-49
2022/01/07 11:02:34;;;;;;;;;51.00;40.00;;;;;;;;4972539;28;51091;-51
2022/01/07 11:05:19;;;;;;;;;49.25;37.00;;;;;;;;4961312;28;51075;-52
2022/01/07 11:08:04;;;;;;;;;55.25;41.25;;;;;;;;4960988;28;51593;-53
2022/01/07 11:11:14;;;;;;;;;51.00;40.25;;;;;;;;4985904;28;51113;-47
2022/01/07 11:14:05;;;;;;;;;52.25;40.75;;;;;;;;4960365;28;51149;-50
2022/01/07 11:16:50;;;;;;;;;54.50;42.25;;;;;;;;4960559;28;51161;-47
2022/01/07 11:19:52;;;;;;;;;52.75;41.50;;;;;;;;4961147;28;51105;-52
2022/01/07 11:22:46;;;;;;;;;51.75;40.25;;;;;;;;4960793;28;51549;-51
2022/01/07 11:25:33;;;;;;;;;54.75;42.50;;;;;;;;4961233;28;51620;-52
2022/01/07 11:28:19;;;;;;;;;51.50;40.50;;;;;;;;4959487;28;51604;-48
2022/01/07 11:34:12;;;;;;;;;51.75;39.50;;;;;;;;4958576;28;51043;-51
2022/01/07 11:36:56;;;;;;;;;52.75;39.50;;;;;;;;4958740;28;51581;-51
2022/01/07 11:40:05;;;;;;;;;54.75;41.75;;;;;;;;4958610;28;51139;-53
2022/01/07 11:42:52;;;;;;;;;53.25;41.50;;;;;;;;4957869;28;52410;-49
2022/01/07 11:45:45;;;;;;;;;49.75;38.75;;;;;;;;4935203;28;51111;-51
2022/01/07 11:48:47;;;;;;;;;50.50;41.25;;;;;;;;4937039;28;51140;-53
2022/01/07 11:51:56;;;;;;;;;50.25;36.50;;;;;;;;4937514;28;51429;-51
2022/01/07 11:55:26;;;;;;;;;52.50;40.00;;;;;;;;4937389;28;51374;-52
2022/01/07 11:58:11;;;;;;;;;55.50;42.50;;;;;;;;4937614;28;51111;-52
2022/01/07 12:01:03;;;;;;;;;51.00;40.25;;;;;;;;4937246;28;51198;-50
2022/01/07 12:03:58;;;;;;;;;55.00;41.00;;;;;;;;4923339;28;51131;-49
2022/01/07 12:06:44;;;;;;;;;53.50;42.25;;;;;;;;4937028;28;51167;-50
2022/01/07 12:09:32;;;;;;;;;46.75;38.00;;;;;;;;4937037;28;52103;-45
2022/01/07 12:12:20;;;;;;;;;54.00;40.75;;;;;;;;4956014;28;51180;-48
2022/01/07 12:15:09;;;;;;;;;53.75;41.00;;;;;;;;4959033;28;51578;-46
2022/01/07 12:18:09;;;;;;;;;53.25;40.75;;;;;;;;4959157;28;51387;-50
2022/01/07 12:21:00;;;;;;;;;52.75;39.00;;;;;;;;4983387;28;51570;-50
2022/01/07 12:23:48;;;;;;;;;49.25;39.50;;;;;;;;4957903;28;51444;-54
2022/01/07 12:26:34;;;;;;;;;50.00;39.25;;;;;;;;4959661;28;51965;-51
2022/01/07 12:29:20;;;;;;;;;50.50;40.75;;;;;;;;4953527;28;51099;-49
2022/01/07 12:32:09;;;;;;;;;51.00;39.25;;;;;;;;4960476;28;51172;-49
2022/01/07 12:35:03;;;;;;;;;51.75;40.50;;;;;;;;4959356;28;51104;-50
2022/01/07 12:37:53;;;;;;;;;52.00;40.25;;;;;;;;4958467;28;51932;-52
2022/01/07 12:40:41;;;;;;;;;51.25;38.25;;;;;;;;4959402;28;51111;-50
2022/01/07 12:43:46;;;;;;;;;54.75;43.00;;;;;;;;4985729;28;51205;-51
2022/01/07 12:46:43;;;;;;;;;55.50;41.00;;;;;;;;4959412;28;51068;-53
2022/01/07 12:49:45;;;;;;;;;48.00;35.75;;;;;;;;4972230;28;51344;-52
2022/01/07 12:52:41;;;;;;;;;52.00;42.00;;;;;;;;4958925;28;51625;-54
2022/01/07 12:55:27;;;;;;;;;56.00;43.25;;;;;;;;4959368;28;51370;-52
2022/01/07 12:58:26;;;;;;;;;52.25;41.50;;;;;;;;4958881;28;51020;-50
2022/01/07 13:01:21;;;;;;;;;54.75;43.00;;;;;;;;4959615;28;51095;-47
2022/01/07 13:04:14;;;;;;;;;53.75;41.50;;;;;;;;4959201;28;51716;-48
2022/01/07 13:06:59;;;;;;;;;54.25;40.50;;;;;;;;4959721;28;51104;-45
2022/01/07 13:10:06;;;;;;;;;49.75;39.00;;;;;;;;4960170;28;51119;-50
2022/01/07 13:13:11;;;;;;;;;54.00;40.00;;;;;;;;4960302;28;51478;-50
2022/01/07 13:16:03;;;;;;;;;57.50;41.00;;;;;;;;4963511;28;51109;-54
2022/01/07 13:18:50;;;;;;;;;55.00;43.00;;;;;;;;4970189;28;51138;-47
2022/01/07 13:21:38;;;;;;;;;55.75;42.75;;;;;;;;4951484;28;51053;-49
2022/01/07 13:24:25;;;;;;;;;58.00;44.75;;;;;;;;4962342;28;51491;-46
2022/01/07 13:27:28;;;;;;;;;52.50;40.25;;;;;;;;4962083;28;51833;-49
2022/01/07 13:30:13;;;;;;;;;50.50;38.75;;;;;;;;4963175;28;51618;-49
2022/01/07 13:33:10;;;;;;;;;55.50;42.00;;;;;;;;4962359;28;51202;-48
2022/01/07 13:35:56;;;;;;;;;48.75;36.00;;;;;;;;4962712;28;51097;-47
2022/01/07 13:38:42;;;;;;;;;58.75;43.50;;;;;;;;4962121;28;51505;-46
2022/01/07 13:41:34;;;;;;;;;58.50;43.00;;;;;;;;4962598;28;51240;-50
2022/01/07 13:44:19;;;;;;;;;55.25;42.00;;;;;;;;4962811;28;51202;-47
2022/01/07 13:47:24;;;;;;;;;55.25;42.25;;;;;;;;4962672;28;51071;-46
2022/01/07 13:50:28;;;;;;;;;51.50;39.75;;;;;;;;4962929;28;51000;-46
2022/01/07 13:53:18;;;;;;;;;57.00;43.00;;;;;;;;4962806;28;51439;-50
2022/01/07 13:56:06;;;;;;;;;54.75;42.75;;;;;;;;4962948;28;51836;-49
2022/01/07 13:59:20;;;;;;;;;55.25;40.50;;;;;;;;4962489;28;51086;-50
2022/01/07 14:02:06;;;;;;;;;48.00;37.00;;;;;;;;4962776;28;51131;-49
2022/01/07 14:04:52;;;;;;;;;52.50;40.25;;;;;;;;4962603;28;50980;-49
2022/01/07 14:07:49;;;;;;;;;53.50;40.50;;;;;;;;4962302;28;51176;-49
2022/01/07 14:10:35;;;;;;;;;54.00;42.25;;;;;;;;4962397;28;51592;-52
2022/01/07 14:13:31;;;;;;;;;49.50;39.00;;;;;;;;4962298;28;51095;-53
2022/01/07 14:16:22;;;;;;;;;54.25;40.50;;;;;;;;4962929;28;51199;-54
2022/01/07 14:19:07;;;;;;;;;56.75;43.25;;;;;;;;4962142;28;51126;-52
2022/01/07 14:21:54;;;;;;;;;52.75;42.25;;;;;;;;4962237;28;51530;-50
2022/01/07 14:24:54;;;;;;;;;59.25;43.50;;;;;;;;4961539;28;51190;-50
2022/01/07 14:27:42;;;;;;;;;50.25;39.25;;;;;;;;4962202;28;51187;-48
2022/01/07 14:30:30;;;;;;;;;46.00;37.50;;;;;;;;4961824;28;51370;-48
2022/01/07 14:33:16;;;;;;;;;57.00;41.00;;;;;;;;4961150;28;53209;-52
2022/01/07 14:36:06;;;;;;;;;54.50;40.00;;;;;;;;4961455;28;51668;-53
2022/01/07 14:38:54;;;;;;;;;46.00;38.00;;;;;;;;4958738;28;52315;-49
2022/01/07 14:41:40;;;;;;;;;48.75;34.75;;;;;;;;4961052;28;51079;-52
2022/01/07 14:44:30;;;;;;;;;50.50;40.25;;;;;;;;4961548;28;51178;-50
2022/01/07 14:47:16;;;;;;;;;51.00;38.75;;;;;;;;4961779;28;51203;-53
2022/01/07 14:50:22;;;;;;;;;54.50;41.00;;;;;;;;4987259;28;51158;-52
2022/01/07 14:53:28;;;;;;;;;55.25;41.25;;;;;;;;4961720;28;51066;-52
2022/01/07 14:56:17;;;;;;;;;55.75;40.75;;;;;;;;4961358;28;51064;-53
2022/01/07 14:59:01;;;;;;;;;58.25;44.00;;;;;;;;4961228;28;51071;-51
2022/01/07 15:01:54;;;;;;;;;56.50;40.75;;;;;;;;4961765;28;51623;-51
2022/01/07 15:05:01;;;;;;;;;54.25;42.50;;;;;;;;4961237;28;51012;-51
2022/01/07 15:07:49;;;;;;;;;59.50;42.25;;;;;;;;4961610;28;51066;-51
2022/01/07 15:10:39;;;;;;;;;54.75;38.50;;;;;;;;4961590;28;51633;-51
2022/01/07 15:13:24;;;;;;;;;53.00;42.50;;;;;;;;4981177;28;51006;-49
2022/01/07 15:19:15;;;;;;;;;50.50;38.25;;;;;;;;4960878;28;51500;-52
2022/01/07 15:22:07;;;;;;;;;48.50;39.50;;;;;;;;4961089;28;51378;-45
2022/01/07 15:24:52;;;;;;;;;45.25;35.50;;;;;;;;4987096;28;51120;-53
2022/01/07 15:27:41;;;;;;;;;50.25;36.75;;;;;;;;4960997;28;51085;-52
2022/01/07 15:30:26;;;;;;;;;46.50;36.00;;;;;;;;4960855;28;51165;-51
2022/01/07 15:33:11;;;;;;;;;51.25;37.75;;;;;;;;4961106;28;51047;-50
2022/01/07 15:35:59;;;;;;;;;45.50;32.75;;;;;;;;4959945;28;51547;-47
2022/01/07 15:38:46;;;;;;;;;50.75;39.75;;;;;;;;4961075;28;51082;-52
2022/01/07 15:41:58;;;;;;;;;50.50;36.50;;;;;;;;4960792;28;51080;-46
2022/01/07 15:45:03;;;;;;;;;54.00;37.25;;;;;;;;4961147;28;51042;-50
2022/01/07 15:47:51;;;;;;;;;45.25;34.75;;;;;;;;4960643;28;51158;-50
2022/01/07 15:50:37;;;;;;;;;53.50;39.25;;;;;;;;4960522;28;51169;-50
2022/01/07 15:53:21;;;;;;;;;49.25;35.50;;;;;;;;4960658;28;51074;-47
2022/01/07 15:56:27;;;;;;;;;46.50;36.00;;;;;;;;4959832;28;51161;-48
2022/01/07 15:59:15;;;;;;;;;50.50;39.00;;;;;;;;4960103;28;51253;-52
2022/01/07 16:02:05;;;;;;;;;48.25;38.00;;;;;;;;4960057;28;51087;-49
2022/01/07 16:04:52;;;;;;;;;43.75;31.50;;;;;;;;4953402;28;51632;-52
2022/01/07 16:07:46;;;;;;;;;50.75;38.00;;;;;;;;4959980;28;51193;-51
2022/01/07 16:10:30;;;;;;;;;48.75;38.50;;;;;;;;4960554;28;51270;-52
2022/01/07 16:13:16;;;;;;;;;37.50;32.25;;;;;;;;4960311;28;51112;-50
2022/01/07 16:16:01;;;;;;;;;45.00;35.00;;;;;;;;4960342;28;51114;-52
2022/01/07 16:18:48;;;;;;;;;51.75;38.75;;;;;;;;4960040;28;51495;-50
2022/01/07 16:21:40;;;;;;;;;44.75;33.75;;;;;;;;4959955;28;51207;-51
2022/01/07 16:24:26;;;;;;;;;44.25;34.75;;;;;;;;4960457;28;50976;-51
2022/01/07 16:27:11;;;;;;;;;54.75;38.50;;;;;;;;4960039;28;51518;-53
2022/01/07 16:29:58;;;;;;;;;48.75;36.00;;;;;;;;4960129;28;51496;-49
2022/01/07 16:32:52;;;;;;;;;44.00;33.50;;;;;;;;4959657;28;51125;-48
2022/01/07 16:35:58;;;;;;;;;43.50;36.00;;;;;;;;4959152;28;51164;-49
2022/01/07 16:38:45;;;;;;;;;49.00;35.75;;;;;;;;4959143;28;51136;-51
2022/01/07 16:41:42;;;;;;;;;49.50;37.50;;;;;;;;4960222;28;51049;-52
2022/01/07 16:44:27;;;;;;;;;45.25;37.25;;;;;;;;4959752;28;51574;-51
2022/01/07 16:47:37;;;;;;;;;51.75;40.50;;;;;;;;4960537;28;51095;-52
2022/01/07 16:50:23;;;;;;;;;44.50;34.75;;;;;;;;4963979;28;51063;-49
2022/01/07 16:53:10;;;;;;;;;52.25;39.25;;;;;;;;4963655;28;51553;-53
2022/01/07 16:55:59;;;;;;;;;56.50;38.25;;;;;;;;4963881;28;51633;-46